Time;durP1;ratioP1;P1;durP2;ratioP2;P2;SDS_P1;SDS_P2;PMS_P1;PMS_P2;Temp;Humidity;BMP_temperature;BMP_pressure;BME280_temperature;BME280_humidity;BME280_pressure;Samples;Min_cycle;Max_cycle;Signal;HPM_P1;HPM_P2
2022/06/19 00:01:57;;;;;;;14.55;4.28;;;;;;;20.17;57.61;96863.72;5067789;28;20119;-66
2022/06/19 00:04:24;;;;;;;13.70;2.80;;;;;;;20.15;57.44;96861.28;5067578;28;20037;-67
2022/06/19 00:06:51;;;;;;;13.05;4.00;;;;;;;20.03;57.83;96861.97;5068063;28;20064;-66
2022/06/19 00:09:17;;;;;;;14.15;3.70;;;;;;;19.89;58.24;96851.13;5067088;28;20063;-67
2022/06/19 00:11:44;;;;;;;12.75;3.80;;;;;;;19.87;58.38;96845.19;5067313;28;20102;-66
2022/06/19 00:14:10;;;;;;;9.70;3.58;;;;;;;19.89;58.18;96846.47;5067196;28;20130;-66
2022/06/19 00:16:37;;;;;;;15.70;4.18;;;;;;;19.87;58.48;96847.94;5067683;28;20051;-66
2022/06/19 00:19:04;;;;;;;15.32;2.70;;;;;;;19.80;58.31;96848.41;5064927;28;20173;-66
2022/06/19 00:21:31;;;;;;;9.50;2.65;;;;;;;19.76;58.46;96848.25;5057752;28;20040;-66
2022/06/19 00:23:57;;;;;;;21.88;4.28;;;;;;;19.71;58.65;96845.69;5065236;28;20372;-66
2022/06/19 00:26:24;;;;;;;11.80;4.13;;;;;;;19.71;58.76;96842.13;5066748;28;20094;-68
2022/06/19 00:28:50;;;;;;;13.40;3.10;;;;;;;19.74;58.27;96841.47;5067526;28;20048;-66
2022/06/19 00:31:17;;;;;;;13.27;3.72;;;;;;;19.76;58.18;96836.47;5066132;28;20083;-67
2022/06/19 00:33:44;;;;;;;9.98;3.40;;;;;;;19.76;58.00;96836.47;5067846;28;20508;-67
2022/06/19 00:36:12;;;;;;;18.90;4.40;;;;;;;19.74;58.00;96827.72;5065186;28;20040;-67
2022/06/19 00:38:38;;;;;;;11.48;3.17;;;;;;;19.83;57.72;96819.50;5067316;28;20048;-67
2022/06/19 00:41:05;;;;;;;12.93;2.92;;;;;;;19.87;57.60;96813.00;5066847;28;20045;-66
2022/06/19 00:43:55;;;;;;;15.13;3.45;;;;;;;19.97;56.81;96816.56;5067352;28;20047;-67
2022/06/19 00:46:56;;;;;;;9.52;3.38;;;;;;;19.94;57.03;96808.97;5066215;28;20075;-67
2022/06/19 00:49:30;;;;;;;9.55;2.58;;;;;;;19.83;57.38;96808.50;5066375;28;20557;-68
2022/06/19 00:52:06;;;;;;;12.18;3.13;;;;;;;19.74;57.83;96805.75;5067236;28;20522;-67
2022/06/19 00:54:42;;;;;;;13.63;3.88;;;;;;;19.70;57.58;96802.06;5066484;28;20036;-66
2022/06/19 00:57:09;;;;;;;10.60;2.65;;;;;;;19.70;57.86;96797.38;5067709;28;20055;-67
2022/06/19 00:59:44;;;;;;;12.65;3.45;;;;;;;19.78;57.55;96797.69;5065460;28;20091;-66
2022/06/19 01:02:14;;;;;;;10.10;2.60;;;;;;;19.76;57.22;96790.56;5067128;28;20036;-66
2022/06/19 01:04:48;;;;;;;13.98;2.97;;;;;;;19.80;57.06;96787.19;5067012;28;20037;-66
2022/06/19 01:07:15;;;;;;;11.75;2.72;;;;;;;19.78;57.15;96789.47;5065553;28;20048;-66
2022/06/19 01:09:44;;;;;;;15.77;3.78;;;;;;;19.86;56.68;96791.34;5066554;28;20075;-66
2022/06/19 01:12:11;;;;;;;12.80;2.95;;;;;;;19.89;56.51;96793.44;5066213;28;20097;-66
2022/06/19 01:14:41;;;;;;;14.40;2.95;;;;;;;19.89;56.19;96772.28;5067495;28;20059;-66
2022/06/19 01:17:10;;;;;;;10.13;2.90;;;;;;;19.93;56.21;96777.13;5065702;28;20488;-66
2022/06/19 01:19:41;;;;;;;16.25;3.08;;;;;;;19.93;55.80;96766.94;5067106;28;20438;-67
2022/06/19 01:22:19;;;;;;;18.80;2.97;;;;;;;20.01;55.70;96768.06;5065504;28;20048;-67
2022/06/19 01:24:59;;;;;;;11.40;3.92;;;;;;;20.00;55.53;96755.47;5066171;28;20512;-67
2022/06/19 01:30:15;;;;;;;17.00;4.57;;;;;;;19.61;56.75;96763.66;5062139;28;20049;-66
2022/06/19 01:32:44;;;;;;;12.32;3.20;;;;;;;19.46;57.64;96756.72;5066290;28;20049;-67
2022/06/19 01:35:12;;;;;;;9.68;3.15;;;;;;;19.71;56.56;96765.22;5056145;28;20025;-66
2022/06/19 01:37:41;;;;;;;18.00;3.03;;;;;;;19.80;56.11;96749.53;5066694;28;20086;-66
2022/06/19 01:40:24;;;;;;;12.23;2.60;;;;;;;19.83;55.62;96748.84;5066503;28;20492;-66
2022/06/19 01:42:50;;;;;;;11.98;3.28;;;;;;;20.04;54.94;96744.63;5066492;28;20048;-67
2022/06/19 01:45:17;;;;;;;13.77;3.05;;;;;;;20.23;54.24;96747.75;5066432;28;20090;-66
2022/06/19 01:47:44;;;;;;;13.32;2.92;;;;;;;20.28;54.06;96750.31;5066331;28;20048;-67
2022/06/19 01:50:19;;;;;;;13.98;3.45;;;;;;;20.26;54.26;96752.59;5066212;28;20518;-66
2022/06/19 01:52:48;;;;;;;16.80;3.40;;;;;;;20.25;53.93;96758.44;5063019;28;20063;-67
2022/06/19 01:55:18;;;;;;;10.85;2.90;;;;;;;20.48;52.96;96758.97;5066377;28;20037;-66
2022/06/19 01:57:51;;;;;;;8.85;2.80;;;;;;;20.50;53.28;96759.41;5066112;28;20462;-67
2022/06/19 02:00:23;;;;;;;17.92;3.08;;;;;;;20.37;53.68;96761.28;5064817;28;20565;-67
2022/06/19 02:03:08;;;;;;;13.98;3.00;;;;;;;20.26;54.29;96762.78;5066214;28;20511;-67
2022/06/19 02:05:37;;;;;;;13.00;2.70;;;;;;;20.25;53.66;96753.75;5065821;28;20158;-66
2022/06/19 02:08:04;;;;;;;15.15;3.65;;;;;;;20.31;53.60;96759.84;5066766;28;20339;-66
2022/06/19 02:10:31;;;;;;;12.90;3.05;;;;;;;20.50;52.93;96762.16;5065779;28;20530;-66
2022/06/19 02:12:59;;;;;;;12.18;2.47;;;;;;;20.54;52.76;96762.31;5065445;28;20550;-67
2022/06/19 02:15:27;;;;;;;15.68;4.03;;;;;;;20.47;52.46;96762.84;5065038;28;20047;-67
2022/06/19 02:17:54;;;;;;;12.00;3.05;;;;;;;20.46;53.12;96758.50;5067919;28;20052;-67
2022/06/19 02:20:21;;;;;;;21.63;4.22;;;;;;;20.37;53.42;96752.22;5068774;28;20048;-66
2022/06/19 02:22:48;;;;;;;10.50;3.28;;;;;;;20.02;55.34;96755.97;5070068;28;20392;-66
2022/06/19 02:25:15;;;;;;;12.20;2.90;;;;;;;19.72;55.78;96755.88;5069728;28;20036;-67
2022/06/19 02:27:41;;;;;;;16.63;3.30;;;;;;;19.31;57.50;96756.09;5069644;28;20040;-67
2022/06/19 02:30:11;;;;;;;12.45;3.65;;;;;;;19.02;58.78;96751.25;5069310;28;20040;-67
2022/06/19 02:32:42;;;;;;;13.10;2.90;;;;;;;18.82;59.27;96748.00;5069366;28;20052;-66
2022/06/19 02:35:18;;;;;;;13.40;2.88;;;;;;;18.89;58.89;96742.84;5069728;28;20032;-66
2022/06/19 02:37:56;;;;;;;14.02;3.00;;;;;;;19.26;57.35;96744.47;5069323;28;20070;-66
2022/06/19 02:40:27;;;;;;;12.85;3.15;;;;;;;19.52;56.42;96738.13;5068743;28;20052;-67
2022/06/19 02:42:54;;;;;;;8.82;2.53;;;;;;;19.75;55.41;96747.75;5069134;28;20098;-66
2022/06/19 02:45:24;;;;;;;11.90;3.88;;;;;;;19.98;54.58;96738.47;5069091;28;20040;-67
2022/06/19 02:47:53;;;;;;;15.23;2.97;;;;;;;20.19;54.01;96740.53;5069822;28;20422;-66
2022/06/19 02:50:31;;;;;;;12.82;3.22;;;;;;;20.24;53.48;96730.13;5069279;28;20411;-66
2022/06/19 02:52:58;;;;;;;10.30;2.97;;;;;;;20.19;53.87;96724.81;5067779;28;20041;-66
2022/06/19 02:55:25;;;;;;;16.55;3.30;;;;;;;20.19;53.91;96724.03;5068829;28;20086;-67
2022/06/19 02:57:52;;;;;;;12.45;2.80;;;;;;;20.21;53.64;96730.00;5068270;28;20045;-66
2022/06/19 03:00:24;;;;;;;12.52;3.22;;;;;;;20.14;53.80;96723.09;5067191;28;20070;-66
2022/06/19 03:02:54;;;;;;;14.23;3.95;;;;;;;20.14;53.77;96723.09;5067284;28;20040;-67
2022/06/19 03:05:24;;;;;;;11.43;3.58;;;;;;;20.18;53.79;96723.22;5068368;28;20040;-67
2022/06/19 03:07:51;;;;;;;8.73;3.08;;;;;;;20.17;53.63;96726.31;5068945;28;20563;-66
2022/06/19 03:10:18;;;;;;;18.10;3.92;;;;;;;20.23;53.14;96727.75;5068798;28;20048;-67
2022/06/19 03:12:44;;;;;;;13.57;3.35;;;;;;;20.30;53.06;96722.50;5069202;28;20045;-66
2022/06/19 03:15:12;;;;;;;12.88;3.40;;;;;;;20.35;53.15;96719.56;5067529;28;20044;-67
2022/06/19 03:17:40;;;;;;;12.63;3.28;;;;;;;20.19;53.71;96718.53;5066141;28;20044;-67
2022/06/19 03:20:07;;;;;;;14.65;3.17;;;;;;;20.19;53.37;96710.28;5066117;28;20044;-66
2022/06/19 03:22:34;;;;;;;14.00;3.28;;;;;;;20.12;53.48;96700.63;5064813;28;20550;-67
2022/06/19 03:25:01;;;;;;;9.52;3.05;;;;;;;20.19;53.39;96705.59;5066170;28;20561;-67
2022/06/19 03:27:27;;;;;;;15.55;3.13;;;;;;;20.17;53.66;96693.31;5066238;28;20056;-66
2022/06/19 03:29:54;;;;;;;13.82;2.90;;;;;;;20.00;54.75;96698.59;5065680;28;20056;-66
2022/06/19 03:32:20;;;;;;;12.45;2.63;;;;;;;19.77;55.10;96695.25;5066056;28;20048;-66
2022/06/19 03:34:47;;;;;;;8.75;3.15;;;;;;;19.65;55.87;96695.13;5064535;28;20056;-66
2022/06/19 03:37:14;;;;;;;10.38;3.30;;;;;;;19.57;56.06;96692.09;5065560;28;20507;-67
2022/06/19 03:39:41;;;;;;;16.10;3.90;;;;;;;19.66;55.59;96692.06;5068773;28;20048;-66
2022/06/19 03:42:08;;;;;;;14.35;3.00;;;;;;;19.79;55.17;96692.97;5067956;28;20419;-66
2022/06/19 03:44:34;;;;;;;13.02;2.80;;;;;;;19.86;55.00;96687.78;5068526;28;20056;-66
2022/06/19 03:47:01;;;;;;;14.02;2.58;;;;;;;19.95;54.42;96692.44;5068444;28;20033;-67
2022/06/19 03:49:28;;;;;;;14.25;2.42;;;;;;;20.08;54.21;96690.63;5068136;28;20052;-66
2022/06/19 03:51:54;;;;;;;11.52;2.78;;;;;;;20.28;53.81;96689.06;5067821;28;20362;-66
2022/06/19 03:54:21;;;;;;;10.77;3.58;;;;;;;20.39;53.43;96690.25;5068476;28;20040;-66
2022/06/19 03:56:47;;;;;;;11.45;3.22;;;;;;;20.60;52.39;96688.69;5068367;28;20041;-66
2022/06/19 03:59:14;;;;;;;13.93;3.80;;;;;;;20.82;51.94;96695.78;5054217;28;20119;-67
2022/06/19 04:01:41;;;;;;;16.77;3.15;;;;;;;20.89;51.68;96687.00;5047947;28;20045;-67
2022/06/19 04:04:09;;;;;;;11.70;3.40;;;;;;;21.07;51.17;96690.44;5047737;28;20048;-67
2022/06/19 04:06:40;;;;;;;10.52;2.55;;;;;;;21.21;50.62;96686.56;5047920;28;20087;-67
2022/06/19 04:09:10;;;;;;;12.45;2.70;;;;;;;21.22;50.55;96685.44;5058603;28;20040;-66
2022/06/19 04:11:36;;;;;;;13.02;2.92;;;;;;;21.25;50.93;96679.25;5067902;28;20497;-67
2022/06/19 04:14:04;;;;;;;9.57;2.90;;;;;;;21.25;50.82;96682.81;5068247;28;20048;-67
2022/06/19 04:16:32;;;;;;;9.32;2.97;;;;;;;21.33;50.42;96692.13;5067069;28;20070;-66
2022/06/19 04:19:01;;;;;;;14.05;2.78;;;;;;;21.46;49.90;96697.66;5066484;28;20048;-67
2022/06/19 04:21:30;;;;;;;9.85;2.85;;;;;;;21.48;49.93;96700.88;5067434;28;20048;-67
2022/06/19 04:23:59;;;;;;;9.05;2.90;;;;;;;21.43;51.21;96704.66;5067555;28;20569;-66
2022/06/19 04:26:29;;;;;;;14.35;2.85;;;;;;;21.29;51.63;96697.50;5065029;28;20040;-67
2022/06/19 04:28:56;;;;;;;10.90;2.90;;;;;;;21.27;51.84;96699.00;5057413;28;20044;-67
2022/06/19 04:31:23;;;;;;;14.00;2.72;;;;;;;21.25;51.80;96704.84;5066886;28;20442;-67
2022/06/19 04:33:51;;;;;;;15.98;3.20;;;;;;;21.23;51.71;96700.81;5067609;28;20123;-67
2022/06/19 04:36:19;;;;;;;8.98;2.95;;;;;;;21.23;52.40;96709.06;5067377;28;20048;-66
2022/06/19 04:38:49;;;;;;;11.88;2.83;;;;;;;21.26;52.84;96703.69;5054995;28;20052;-67
2022/06/19 04:41:18;;;;;;;11.88;2.42;;;;;;;21.20;53.21;96702.31;5067721;28;20543;-66
2022/06/19 04:43:45;;;;;;;14.82;2.80;;;;;;;21.02;54.10;96696.97;5066766;28;20570;-66
2022/06/19 04:46:12;;;;;;;11.45;3.85;;;;;;;21.03;53.92;96695.00;5067177;28;20064;-67
2022/06/19 04:48:39;;;;;;;13.57;3.75;;;;;;;21.15;53.40;96699.72;5066793;28;20062;-66
2022/06/19 04:51:06;;;;;;;12.45;3.25;;;;;;;21.28;53.08;96703.34;5065398;28;20053;-66
2022/06/19 04:53:32;;;;;;;16.83;2.90;;;;;;;21.42;52.56;96709.34;5065196;28;20052;-67
2022/06/19 04:55:59;;;;;;;11.30;2.83;;;;;;;21.51;52.61;96706.50;5064592;28;20036;-66
2022/06/19 04:58:27;;;;;;;12.80;2.83;;;;;;;21.63;52.67;96708.47;5064266;28;20044;-66
2022/06/19 05:00:53;;;;;;;10.27;2.70;;;;;;;21.73;52.60;96709.22;5063401;28;20500;-67
2022/06/19 05:03:22;;;;;;;14.05;3.25;;;;;;;21.75;52.79;96715.19;5063814;28;20427;-66
2022/06/19 05:05:51;;;;;;;13.40;3.67;;;;;;;21.93;52.40;96713.84;5057953;28;20045;-66
2022/06/19 05:08:17;;;;;;;13.98;2.85;;;;;;;22.01;51.65;96712.13;5058076;28;20052;-67
2022/06/19 05:10:43;;;;;;;13.23;2.90;;;;;;;22.02;52.20;96712.91;5065767;28;20063;-66
2022/06/19 05:13:18;;;;;;;11.20;2.70;;;;;;;22.12;51.96;96706.16;5066151;28;20045;-67
2022/06/19 05:15:45;;;;;;;12.82;3.78;;;;;;;22.18;51.67;96713.03;5066866;28;20514;-66
2022/06/19 05:18:12;;;;;;;11.48;3.63;;;;;;;22.33;51.56;96714.28;5066344;28;20045;-67
2022/06/19 05:20:39;;;;;;;11.88;2.65;;;;;;;22.45;51.29;96707.97;5047219;28;20041;-67
2022/06/19 05:23:07;;;;;;;14.48;3.80;;;;;;;22.56;50.95;96711.88;5046284;28;20102;-67
2022/06/19 05:25:34;;;;;;;19.70;3.35;;;;;;;22.52;52.08;96712.91;5057507;28;20076;-67
2022/06/19 05:28:00;;;;;;;11.57;2.72;;;;;;;22.52;52.75;96713.69;5067265;28;20426;-66
2022/06/19 05:30:27;;;;;;;16.02;4.30;;;;;;;22.62;51.78;96706.16;5066174;28;20040;-66
2022/06/19 05:32:54;;;;;;;15.07;3.75;;;;;;;22.68;51.63;96704.75;5066607;28;20307;-66
2022/06/19 05:35:20;;;;;;;12.02;3.13;;;;;;;22.75;52.35;96713.25;5065571;28;20388;-67
2022/06/19 05:37:47;;;;;;;12.20;3.45;;;;;;;22.88;51.60;96711.22;5065820;28;20045;-67
2022/06/19 05:40:13;;;;;;;8.68;3.03;;;;;;;22.96;52.07;96715.03;5065784;28;20037;-67
2022/06/19 05:42:40;;;;;;;11.63;3.25;;;;;;;23.07;51.82;96704.28;5065908;28;20045;-66
2022/06/19 05:45:07;;;;;;;10.98;3.33;;;;;;;23.06;52.48;96703.47;5063612;28;20111;-66
2022/06/19 05:47:33;;;;;;;10.73;3.33;;;;;;;23.10;52.26;96706.31;5063310;28;20464;-67
2022/06/19 05:50:00;;;;;;;12.40;3.15;;;;;;;23.21;51.84;96707.44;5063001;28;20094;-67
2022/06/19 05:52:26;;;;;;;11.45;3.45;;;;;;;23.32;51.13;96704.97;5054091;28;20059;-67
2022/06/19 05:54:53;;;;;;;11.68;3.30;;;;;;;23.52;50.73;96711.44;5067992;28;20056;-66
2022/06/19 05:57:20;;;;;;;16.92;4.68;;;;;;;23.72;49.83;96711.56;5067726;28;20043;-67
2022/06/19 05:59:48;;;;;;;12.93;3.15;;;;;;;23.87;50.73;96706.41;5065917;28;20043;-67
2022/06/19 06:02:18;;;;;;;17.17;4.05;;;;;;;23.93;50.10;96699.47;5069736;28;20048;-66
2022/06/19 06:04:45;;;;;;;12.52;3.22;;;;;;;23.96;49.86;96696.00;5050388;28;20403;-66
2022/06/19 06:07:11;;;;;;;12.95;3.58;;;;;;;24.08;49.82;96702.56;5050347;28;20041;-66
2022/06/19 06:09:38;;;;;;;14.25;4.53;;;;;;;24.19;51.10;96703.66;5066699;28;20411;-66
2022/06/19 06:12:05;;;;;;;14.25;4.53;;;;;;;24.28;48.32;96698.75;5052634;28;20117;-66
2022/06/19 06:14:32;;;;;;;16.38;4.97;;;;;;;24.48;48.32;96706.28;5050539;28;20416;-66
2022/06/19 06:16:58;;;;;;;12.10;3.53;;;;;;;24.64;49.13;96706.25;5063178;28;20495;-66
2022/06/19 06:19:25;;;;;;;13.02;3.30;;;;;;;24.77;47.21;96704.16;5066754;28;20059;-66
2022/06/19 06:21:51;;;;;;;11.00;4.03;;;;;;;24.93;46.80;96704.94;5068178;28;20040;-66
2022/06/19 06:24:18;;;;;;;14.63;4.35;;;;;;;25.09;47.35;96703.25;5070604;28;20048;-66
2022/06/19 06:26:45;;;;;;;13.55;3.53;;;;;;;25.10;47.47;96711.22;5067167;28;20045;-66
2022/06/19 06:29:11;;;;;;;12.43;3.33;;;;;;;25.15;47.70;96704.56;5062198;28;20049;-66
2022/06/19 06:31:38;;;;;;;12.95;5.20;;;;;;;25.29;46.90;96715.13;5067609;28;20376;-66
2022/06/19 06:34:05;;;;;;;14.70;4.53;;;;;;;25.32;46.88;96704.09;5066770;28;20052;-66
2022/06/19 06:36:31;;;;;;;12.70;3.75;;;;;;;25.38;46.32;96709.34;5063270;28;20044;-66
2022/06/19 06:38:58;;;;;;;15.00;3.97;;;;;;;25.50;46.25;96711.94;5073806;28;20048;-66
2022/06/19 06:41:25;;;;;;;15.60;4.22;;;;;;;25.57;46.66;96711.31;5073005;28;20045;-67
2022/06/19 06:43:51;;;;;;;12.10;4.28;;;;;;;25.63;46.30;96717.34;5073844;28;20068;-67
2022/06/19 06:46:24;;;;;;;12.18;4.05;;;;;;;25.66;46.24;96714.66;5070315;28;20102;-66
2022/06/19 06:48:54;;;;;;;15.57;4.05;;;;;;;25.64;46.92;96713.41;5067903;28;20388;-66
2022/06/19 06:51:23;;;;;;;17.58;3.88;;;;;;;25.78;46.38;96723.94;5067008;28;20052;-66
2022/06/19 06:53:51;;;;;;;12.10;3.75;;;;;;;25.77;46.81;96716.81;5067363;28;20041;-66
2022/06/19 06:56:18;;;;;;;14.82;4.00;;;;;;;25.69;47.07;96716.69;5066924;28;20037;-67
2022/06/19 06:58:44;;;;;;;9.10;3.33;;;;;;;25.75;45.50;96710.84;5067685;28;20032;-66
2022/06/19 07:01:15;;;;;;;12.55;4.00;;;;;;;25.88;46.43;96715.03;5065776;28;20050;-66
2022/06/19 07:03:43;;;;;;;16.92;4.47;;;;;;;25.93;45.65;96719.47;5066095;28;20383;-67
2022/06/19 07:06:10;;;;;;;13.70;5.03;;;;;;;25.98;45.88;96717.19;5066340;28;20551;-67
2022/06/19 07:08:38;;;;;;;12.40;3.88;;;;;;;25.99;46.31;96709.66;5066303;28;20044;-66
2022/06/19 07:11:04;;;;;;;9.48;4.03;;;;;;;26.12;45.61;96715.03;5063208;28;20048;-66
2022/06/19 07:13:32;;;;;;;16.17;4.25;;;;;;;26.35;44.92;96718.59;5065236;28;20419;-66
2022/06/19 07:15:58;;;;;;;11.07;3.95;;;;;;;26.55;44.61;96723.22;5066041;28;20095;-66
2022/06/19 07:18:25;;;;;;;13.63;4.25;;;;;;;26.63;45.46;96722.16;5066552;28;20036;-67
2022/06/19 07:20:51;;;;;;;15.85;5.65;;;;;;;26.80;44.43;96720.00;5066482;28;20086;-66
2022/06/19 07:23:18;;;;;;;17.58;4.43;;;;;;;26.87;44.69;96723.66;5052646;28;20067;-67
2022/06/19 07:25:45;;;;;;;12.50;3.67;;;;;;;26.95;44.82;96723.81;5066134;28;20040;-66
2022/06/19 07:28:16;;;;;;;12.95;4.18;;;;;;;27.01;44.76;96719.50;5068904;28;20037;-66
2022/06/19 07:30:43;;;;;;;14.82;4.53;;;;;;;27.09;44.05;96720.41;5068342;28;20048;-66
2022/06/19 07:33:09;;;;;;;15.70;4.78;;;;;;;27.17;43.76;96724.06;5065861;28;20044;-67
2022/06/19 07:35:36;;;;;;;11.40;3.97;;;;;;;27.24;43.79;96718.59;5065098;28;20157;-66
2022/06/19 07:38:02;;;;;;;16.05;5.15;;;;;;;27.33;44.44;96724.66;5066874;28;20036;-66
2022/06/19 07:40:29;;;;;;;16.15;5.85;;;;;;;27.52;43.72;96722.88;5066018;28;20048;-66
2022/06/19 07:42:56;;;;;;;13.80;4.60;;;;;;;27.69;42.86;96723.47;5066164;28;20051;-66
2022/06/19 07:45:23;;;;;;;9.02;3.55;;;;;;;27.76;43.35;96723.56;5055362;28;20404;-67
2022/06/19 07:50:34;;;;;;;11.10;4.57;;;;;;;28.14;41.80;96720.69;5066494;28;20291;-66
2022/06/19 07:53:01;;;;;;;11.27;5.32;;;;;;;28.35;40.54;96722.06;5065961;28;20049;-66
2022/06/19 07:55:30;;;;;;;13.40;4.70;;;;;;;28.47;40.79;96721.78;5065726;28;20454;-66
2022/06/19 07:57:59;;;;;;;17.48;6.65;;;;;;;28.65;40.67;96719.09;5065134;28;20450;-66
2022/06/19 08:00:29;;;;;;;13.85;5.38;;;;;;;28.83;40.76;96723.97;5065771;28;20045;-65
2022/06/19 08:02:56;;;;;;;11.65;5.57;;;;;;;28.93;40.25;96714.09;5068150;28;20051;-65
2022/06/19 08:05:26;;;;;;;15.88;5.15;;;;;;;29.02;39.48;96713.72;5055672;28;20049;-65
2022/06/19 08:07:53;;;;;;;13.00;5.32;;;;;;;29.24;40.70;96713.81;5048745;28;20044;-65
2022/06/19 08:10:26;;;;;;;13.60;5.38;;;;;;;29.64;37.33;96714.78;5047853;28;20056;-66
2022/06/19 08:12:54;;;;;;;11.15;5.72;;;;;;;30.02;34.75;96708.81;5067030;28;20454;-66
2022/06/19 08:15:21;;;;;;;15.68;5.72;;;;;;;30.36;35.75;96699.25;5066818;28;20115;-65
2022/06/19 08:17:47;;;;;;;10.88;6.32;;;;;;;30.48;33.50;96714.81;5067564;28;20037;-66
2022/06/19 08:20:16;;;;;;;12.57;6.07;;;;;;;30.63;33.29;96707.19;5065779;28;20098;-66
2022/06/19 08:22:43;;;;;;;13.30;6.38;;;;;;;30.68;31.41;96705.97;5063909;28;20033;-66
2022/06/19 08:25:12;;;;;;;16.17;5.32;;;;;;;30.82;30.96;96702.38;5065324;28;20404;-66
2022/06/19 08:27:41;;;;;;;11.02;5.82;;;;;;;30.94;31.22;96706.72;5067600;28;20032;-66
2022/06/19 08:30:16;;;;;;;10.13;5.50;;;;;;;31.08;29.43;96695.50;5067069;28;20418;-67
2022/06/19 08:32:42;;;;;;;10.82;5.80;;;;;;;31.18;29.45;96696.66;5059269;28;20508;-66
2022/06/19 08:35:09;;;;;;;12.85;6.00;;;;;;;31.27;30.25;96699.81;5057734;28;20542;-65
2022/06/19 08:37:38;;;;;;;10.15;5.50;;;;;;;31.38;29.28;96694.19;5058540;28;20037;-65
2022/06/19 08:40:28;;;;;;;11.27;5.20;;;;;;;31.46;28.80;96691.34;5064005;28;20059;-65
2022/06/19 08:43:23;;;;;;;12.40;4.85;;;;;;;31.61;28.60;96703.25;5065237;28;20048;-67
2022/06/19 08:46:09;;;;;;;11.10;4.30;;;;;;;31.63;27.45;96712.03;5064627;28;20041;-66
2022/06/19 08:48:45;;;;;;;13.25;4.45;;;;;;;31.57;26.84;96696.91;5067081;28;20622;-65
2022/06/19 08:51:35;;;;;;;14.03;4.20;;;;;;;31.60;26.88;96708.06;5067252;28;20106;-66
2022/06/19 08:54:21;;;;;;;8.25;4.40;;;;;;;31.79;26.64;96695.53;5067557;28;20036;-66
2022/06/19 08:56:52;;;;;;;12.75;3.92;;;;;;;31.84;26.57;96708.28;5066546;28;20041;-66
2022/06/19 08:59:43;;;;;;;12.43;4.85;;;;;;;31.91;26.21;96719.47;5056856;28;20435;-65
2022/06/19 09:02:28;;;;;;;11.57;4.50;;;;;;;31.75;25.69;96705.16;5056239;28;20044;-65
2022/06/19 09:08:25;;;;;;;7.30;3.85;;;;;;;31.88;26.34;96705.47;5066896;28;20135;-66
2022/06/19 09:11:06;;;;;;;14.13;4.30;;;;;;;32.04;25.61;96702.16;5065884;28;20040;-65
2022/06/19 09:13:35;;;;;;;14.20;4.13;;;;;;;32.14;25.33;96689.28;5066682;28;20407;-66
2022/06/19 09:16:23;;;;;;;12.98;4.18;;;;;;;31.96;25.60;96709.03;5066122;28;20044;-66
2022/06/19 09:18:57;;;;;;;11.98;4.00;;;;;;;32.18;25.40;96713.25;5066035;28;20037;-66
2022/06/19 09:22:13;;;;;;;11.80;3.83;;;;;;;32.17;25.08;96705.28;5066702;28;20066;-66
2022/06/19 09:25:16;;;;;;;9.27;3.88;;;;;;;32.33;24.77;96713.13;5050454;28;20251;-66
2022/06/19 09:27:56;;;;;;;17.17;4.00;;;;;;;32.41;24.28;96709.06;5064973;28;20082;-65
2022/06/19 09:30:33;;;;;;;23.90;4.57;;;;;;;32.27;23.87;96698.78;5067061;28;20041;-65
2022/06/19 09:33:09;;;;;;;10.85;3.38;;;;;;;32.34;23.31;96703.50;5066227;28;20127;-66
2022/06/19 09:35:45;;;;;;;11.57;3.67;;;;;;;32.47;23.39;96703.84;5065678;28;20447;-66
2022/06/19 09:38:22;;;;;;;13.55;3.53;;;;;;;32.35;23.41;96701.50;5066479;28;20086;-66
2022/06/19 09:40:56;;;;;;;10.07;3.30;;;;;;;32.43;24.07;96692.59;5066313;28;20032;-66
2022/06/19 09:43:39;;;;;;;8.35;3.63;;;;;;;32.55;23.40;96694.16;5066755;28;20128;-66
2022/06/19 09:46:22;;;;;;;10.65;3.72;;;;;;;32.66;23.13;96693.22;5066155;28;20045;-67
2022/06/19 09:49:00;;;;;;;13.00;3.35;;;;;;;32.78;23.63;96691.88;5066657;28;20056;-67
2022/06/19 09:52:08;;;;;;;11.90;3.80;;;;;;;32.89;22.67;96706.59;5065921;28;20044;-66
2022/06/19 09:54:53;;;;;;;12.38;3.55;;;;;;;32.82;23.03;96687.03;5066887;28;20083;-66
2022/06/19 09:57:34;;;;;;;11.07;3.17;;;;;;;33.02;23.02;96692.03;5046288;28;20397;-66
2022/06/19 10:00:05;;;;;;;8.75;3.00;;;;;;;32.82;22.52;96696.25;5053968;28;20427;-65
2022/06/19 10:03:00;;;;;;;11.48;3.28;;;;;;;32.87;22.37;96694.97;5066783;28;20519;-66
2022/06/19 10:05:40;;;;;;;14.52;3.35;;;;;;;32.86;22.33;96701.03;5065424;28;20446;-66
2022/06/19 10:08:17;;;;;;;16.02;4.18;;;;;;;32.95;22.71;96704.13;5066326;28;20041;-66
2022/06/19 10:11:09;;;;;;;13.38;3.78;;;;;;;32.87;22.96;96699.81;5065299;28;20048;-66
2022/06/19 10:13:35;;;;;;;10.68;3.30;;;;;;;33.07;23.34;96700.00;5065258;28;20040;-66
2022/06/19 10:16:04;;;;;;;9.65;3.67;;;;;;;33.06;22.18;96687.97;5072779;28;20503;-66
2022/06/19 10:18:40;;;;;;;9.00;3.60;;;;;;;32.99;23.05;96685.25;5068732;28;20044;-66
2022/06/19 10:22:13;;;;;;;9.38;3.47;;;;;;;33.08;22.82;96701.56;5061787;28;20095;-66
2022/06/19 10:24:06;;;;;;;11.45;4.03;;;;;;;33.16;23.15;96683.44;5046131;28;20053;-65
2022/06/19 10:26:41;;;;;;;10.65;3.55;;;;;;;33.22;22.43;96678.16;5049059;28;20487;-66
2022/06/19 10:29:23;;;;;;;13.60;4.25;;;;;;;33.20;21.94;96675.78;5061017;28;20056;-66
2022/06/19 10:32:13;;;;;;;14.25;4.10;;;;;;;33.29;22.67;96677.28;5051032;28;20496;-66
2022/06/19 10:34:46;;;;;;;12.65;3.20;;;;;;;33.37;21.93;96680.75;5049128;28;20454;-66
2022/06/19 10:37:31;;;;;;;11.15;3.53;;;;;;;33.45;22.08;96662.63;5065287;28;20037;-66
2022/06/19 10:40:18;;;;;;;10.43;4.28;;;;;;;33.40;21.77;96666.72;5069384;28;20072;-66
2022/06/19 10:42:51;;;;;;;13.05;3.83;;;;;;;33.52;22.18;96682.16;5069166;28;20066;-66
2022/06/19 10:45:35;;;;;;;14.82;3.60;;;;;;;33.42;21.58;96669.88;5070262;28;20045;-66
2022/06/19 10:48:18;;;;;;;9.45;3.60;;;;;;;33.54;22.45;96665.72;5072043;28;20040;-67
2022/06/19 10:51:02;;;;;;;20.75;4.22;;;;;;;33.80;22.68;96657.72;5071355;28;20044;-67
2022/06/19 10:53:50;;;;;;;15.65;3.83;;;;;;;33.59;22.38;96661.66;5074187;28;20095;-66
2022/06/19 10:56:24;;;;;;;12.30;4.03;;;;;;;33.73;23.59;96657.81;5049935;28;20044;-67
2022/06/19 10:58:51;;;;;;;8.77;3.53;;;;;;;33.71;24.01;96649.84;5049477;28;20081;-66
2022/06/19 11:04:12;;;;;;;14.88;3.65;;;;;;;33.58;22.13;96660.06;5050728;28;20504;-66
2022/06/19 11:07:09;;;;;;;10.10;3.53;;;;;;;33.64;23.09;96663.97;5048722;28;20534;-66
2022/06/19 11:09:40;;;;;;;12.98;4.15;;;;;;;33.85;22.34;96653.63;5053510;28;20732;-66
2022/06/19 11:12:20;;;;;;;13.25;5.00;;;;;;;34.10;22.00;96658.06;5049336;28;20045;-66
2022/06/19 11:14:53;;;;;;;9.32;4.05;;;;;;;33.97;22.57;96671.88;5049212;28;20114;-66
2022/06/19 11:17:33;;;;;;;9.50;3.70;;;;;;;34.04;22.51;96666.16;5048995;28;20049;-66
2022/06/19 11:20:30;;;;;;;9.20;4.40;;;;;;;33.99;22.47;96661.03;5049410;28;20048;-66
2022/06/19 11:23:05;;;;;;;11.60;4.68;;;;;;;33.76;22.60;96657.00;5049157;28;20401;-67
2022/06/19 11:25:35;;;;;;;13.93;4.00;;;;;;;33.56;22.45;96656.88;5048479;28;20048;-66
2022/06/19 11:28:04;;;;;;;10.23;3.78;;;;;;;33.81;22.46;96653.69;5049453;28;20500;-66
2022/06/19 11:30:35;;;;;;;13.48;3.85;;;;;;;34.04;22.51;96657.72;5055314;28;20045;-67
2022/06/19 11:33:07;;;;;;;12.07;4.43;;;;;;;34.17;21.87;96651.53;5068474;28;20056;-66
2022/06/19 11:35:42;;;;;;;13.80;4.47;;;;;;;34.35;22.40;96656.81;5068695;28;20101;-67
2022/06/19 11:38:10;;;;;;;12.90;3.60;;;;;;;34.55;21.65;96661.66;5064011;28;20503;-66
2022/06/19 11:40:43;;;;;;;11.23;4.22;;;;;;;34.48;22.21;96666.19;5068514;28;20047;-66
2022/06/19 11:43:30;;;;;;;13.05;4.22;;;;;;;34.38;22.12;96653.94;5067982;28;20407;-67
2022/06/19 11:46:13;;;;;;;9.55;4.38;;;;;;;34.16;21.98;96645.09;5068077;28;20036;-67
2022/06/19 11:48:39;;;;;;;15.20;4.75;;;;;;;34.25;22.23;96655.78;5068380;28;20409;-67
2022/06/19 11:51:17;;;;;;;13.25;4.32;;;;;;;34.19;22.25;96655.47;5067297;28;20033;-67
2022/06/19 11:53:54;;;;;;;13.80;4.65;;;;;;;34.16;22.63;96649.94;5063393;28;20051;-67
2022/06/19 11:56:38;;;;;;;9.23;3.58;;;;;;;34.43;22.80;96649.03;5066019;28;20032;-67
2022/06/19 11:59:16;;;;;;;8.57;4.10;;;;;;;34.17;23.69;96649.50;5060374;28;20047;-67